createdAt,value
2023-04-28T00:02:57.156Z,8.10
2023-04-28T00:08:04.550Z,8.00
2023-04-28T00:13:12.018Z,7.90
2023-04-28T00:18:18.970Z,7.70
2023-04-28T00:23:26.116Z,7.50
2023-04-28T00:28:34.987Z,7.50
2023-04-28T00:33:43.261Z,7.40
2023-04-28T00:38:50.067Z,7.50
2023-04-28T00:43:57.395Z,7.50
2023-04-28T00:49:06.289Z,7.30
2023-04-28T00:54:16.499Z,7.40
2023-04-28T00:59:23.705Z,7.20
2023-04-28T01:04:32.470Z,7.20
2023-04-28T01:09:39.315Z,7.10
2023-04-28T01:14:46.406Z,7.10
2023-04-28T01:19:53.554Z,7.20
2023-04-28T01:25:00.844Z,7.10
2023-04-28T01:30:09.956Z,7.00
2023-04-28T01:35:16.850Z,6.90
2023-04-28T01:40:23.876Z,6.90
2023-04-28T01:45:31.017Z,7.10
2023-04-28T01:50:37.980Z,7.00
2023-04-28T01:55:44.850Z,7.00
2023-04-28T02:00:51.715Z,7.10
2023-04-28T02:05:58.687Z,7.10
2023-04-28T02:11:05.695Z,6.90
2023-04-28T02:16:12.504Z,6.90
2023-04-28T02:21:19.662Z,6.80
2023-04-28T02:26:27.062Z,6.50
2023-04-28T02:31:34.662Z,6.60
2023-04-28T02:36:42.245Z,6.50
2023-04-28T02:41:48.890Z,6.50
2023-04-28T02:46:56.008Z,6.50
2023-04-28T02:52:02.935Z,6.30
2023-04-28T02:57:09.807Z,6.50
2023-04-28T03:02:17.306Z,6.50
2023-04-28T03:07:24.086Z,6.30
2023-04-28T03:12:31.472Z,6.30
2023-04-28T03:17:40.316Z,6.50
2023-04-28T03:22:47.094Z,6.50
2023-04-28T03:27:54.065Z,6.50
2023-04-28T03:33:01.256Z,6.30
2023-04-28T03:38:08.216Z,6.40
2023-04-28T03:43:15.404Z,6.30
2023-04-28T03:48:22.288Z,6.50
2023-04-28T03:53:30.122Z,6.40
2023-04-28T03:58:37.073Z,6.50
2023-04-28T04:03:44.147Z,6.50
2023-04-28T04:08:51.152Z,6.40
2023-04-28T04:13:58.137Z,6.50
2023-04-28T04:19:05.242Z,6.40
2023-04-28T04:24:12.458Z,6.50
2023-04-28T04:29:19.433Z,6.50
2023-04-28T04:34:26.249Z,6.60
2023-04-28T04:39:33.054Z,6.70
2023-04-28T04:44:39.784Z,6.90
2023-04-28T04:49:47.206Z,7.10
2023-04-28T04:54:53.895Z,7.20
2023-04-28T05:00:01.061Z,7.10
2023-04-28T05:05:20.323Z,7.30
2023-04-28T05:10:18.428Z,7.30
2023-04-28T05:15:25.564Z,7.50
2023-04-28T05:20:33.010Z,7.50
2023-04-28T05:25:40.846Z,7.70
2023-04-28T05:30:48.599Z,7.60
2023-04-28T05:35:55.438Z,7.50
2023-04-28T05:41:03.462Z,7.80
2023-04-28T05:46:28.318Z,7.60
2023-04-28T05:51:19.283Z,7.80
2023-04-28T05:56:26.257Z,8.00
2023-04-28T06:01:34.402Z,8.00
2023-04-28T06:06:41.939Z,8.10
2023-04-28T06:11:48.742Z,8.20
2023-04-28T06:16:55.562Z,8.30
2023-04-28T06:22:02.910Z,8.30
2023-04-28T06:27:09.767Z,8.30
2023-04-28T06:32:17.032Z,8.50
2023-04-28T06:37:23.917Z,8.60
2023-04-28T06:42:31.137Z,8.70
2023-04-28T06:47:38.138Z,8.60
2023-04-28T06:52:45.179Z,8.50
2023-04-28T06:57:52.209Z,8.60
2023-04-28T07:02:59.314Z,8.70
2023-04-28T07:08:08.110Z,8.80
2023-04-28T07:13:15.055Z,8.90
2023-04-28T07:18:21.911Z,8.80
2023-04-28T07:23:29.748Z,8.90
2023-04-28T07:28:37.841Z,9.00
2023-04-28T07:33:44.684Z,8.80
2023-04-28T07:38:51.471Z,8.70
2023-04-28T07:43:58.595Z,8.60
2023-04-28T07:49:05.936Z,8.70
2023-04-28T07:54:13.196Z,8.80
2023-04-28T07:59:20.085Z,8.60
2023-04-28T08:04:27.450Z,8.70
2023-04-28T08:09:35.726Z,8.70
2023-04-28T08:14:43.384Z,8.70
2023-04-28T08:19:50.849Z,8.80
2023-04-28T08:24:58.095Z,8.90
2023-04-28T08:30:06.083Z,8.90
2023-04-28T08:35:13.262Z,8.80
2023-04-28T08:40:20.573Z,8.80
2023-04-28T08:45:28.493Z,8.70
2023-04-28T08:50:37.826Z,8.80
2023-04-28T08:55:46.324Z,8.80
2023-04-28T09:00:56.849Z,9.00
2023-04-28T09:06:04.398Z,9.00
2023-04-28T09:11:15.077Z,9.10
2023-04-28T09:16:22.314Z,9.10
2023-04-28T09:21:32.868Z,9.00
2023-04-28T09:26:55.571Z,9.20
2023-04-28T09:32:23.961Z,9.50
2023-04-28T09:37:33.142Z,9.50
2023-04-28T09:42:47.106Z,9.80
2023-04-28T09:47:52.746Z,9.80
2023-04-28T09:52:59.967Z,9.70
2023-04-28T09:58:09.506Z,9.80
2023-04-28T10:03:19.983Z,10.10
2023-04-28T10:08:28.873Z,10.10
2023-04-28T10:13:37.588Z,10.00
2023-04-28T10:18:46.508Z,10.30
2023-04-28T10:24:04.203Z,10.60
2023-04-28T10:29:11.344Z,10.50
2023-04-28T10:34:29.576Z,10.50
2023-04-28T10:39:37.541Z,10.50
2023-04-28T10:44:44.824Z,10.40
2023-04-28T10:50:08.006Z,10.70
2023-04-28T10:55:36.867Z,10.60
2023-04-28T11:00:52.686Z,10.60
2023-04-28T11:06:28.814Z,11.00
2023-04-28T11:11:36.961Z,11.00
2023-04-28T11:17:03.712Z,11.10
2023-04-28T11:22:27.331Z,11.40
2023-04-28T11:27:36.408Z,11.80
2023-04-28T11:32:44.264Z,11.70
2023-04-28T11:38:04.913Z,12.00
2023-04-28T11:43:12.319Z,12.00
2023-04-28T11:48:25.364Z,12.10
2023-04-28T11:53:46.022Z,12.10
2023-04-28T11:59:11.114Z,12.00
2023-04-28T12:04:37.050Z,11.40
2023-04-28T12:09:49.940Z,11.60
2023-04-28T12:15:07.780Z,11.70
2023-04-28T12:20:36.141Z,11.90
2023-04-28T12:25:48.873Z,11.80
2023-04-28T12:31:05.148Z,11.70
2023-04-28T12:36:13.225Z,11.70
2023-04-28T12:41:20.370Z,11.60
2023-04-28T12:46:27.670Z,11.70
2023-04-28T12:51:37.751Z,11.70
2023-04-28T12:56:44.017Z,11.70
2023-04-28T13:01:51.488Z,11.50
2023-04-28T13:06:59.691Z,11.40
2023-04-28T13:12:08.272Z,11.60
2023-04-28T13:17:16.054Z,11.50
2023-04-28T13:22:23.415Z,11.40
2023-04-28T13:27:31.091Z,11.30
2023-04-28T13:32:38.458Z,11.30
2023-04-28T13:37:46.672Z,11.40
2023-04-28T13:42:53.574Z,11.50
2023-04-28T13:48:01.071Z,11.50
2023-04-28T13:53:08.882Z,11.50
2023-04-28T13:58:15.834Z,11.30
2023-04-28T14:03:24.322Z,11.40
2023-04-28T14:08:31.713Z,11.50
2023-04-28T14:13:40.119Z,11.20
2023-04-28T14:18:47.142Z,11.00
2023-04-28T14:23:54.434Z,11.00
2023-04-28T14:29:01.935Z,11.10
2023-04-28T14:34:09.219Z,10.80
2023-04-28T14:39:16.266Z,10.80
2023-04-28T14:44:23.275Z,10.60
2023-04-28T14:49:31.779Z,10.40
2023-04-28T14:54:39.839Z,10.50
2023-04-28T14:59:47.169Z,10.80
2023-04-28T15:04:54.939Z,10.70
2023-04-28T15:10:02.454Z,11.00
2023-04-28T15:15:11.101Z,10.80
2023-04-28T15:20:17.952Z,10.70
2023-04-28T15:25:25.713Z,10.70
2023-04-28T15:30:37.813Z,10.90
2023-04-28T15:35:45.511Z,10.90
2023-04-28T15:40:52.323Z,10.70
2023-04-28T15:45:59.353Z,10.50
2023-04-28T15:51:07.070Z,10.70
2023-04-28T15:56:14.454Z,10.70
2023-04-28T16:01:24.204Z,10.60
2023-04-28T16:06:31.681Z,10.40
2023-04-28T16:11:39.359Z,10.80
2023-04-28T16:16:46.641Z,11.10
2023-04-28T16:21:53.937Z,11.00
2023-04-28T16:27:01.323Z,10.90
2023-04-28T16:32:08.640Z,11.00
2023-04-28T16:37:16.102Z,10.60
2023-04-28T16:42:23.875Z,10.60
2023-04-28T16:47:31.619Z,10.50
2023-04-28T16:52:39.100Z,10.70
2023-04-28T16:57:46.152Z,10.70
2023-04-28T17:02:53.749Z,10.50
2023-04-28T17:08:00.548Z,10.70
2023-04-28T17:13:11.218Z,10.80
2023-04-28T17:18:17.964Z,10.90
2023-04-28T17:23:24.708Z,10.80
2023-04-28T17:28:31.562Z,10.70
2023-04-28T17:33:38.402Z,10.40
2023-04-28T17:38:45.174Z,10.30
2023-04-28T17:43:53.241Z,10.20
2023-04-28T17:49:00.991Z,10.20
2023-04-28T17:54:10.266Z,10.10
2023-04-28T17:59:17.141Z,9.60
2023-04-28T18:04:24.223Z,9.70
2023-04-28T18:09:32.053Z,9.60
2023-04-28T18:14:40.765Z,9.50
2023-04-28T18:19:51.056Z,9.80
2023-04-28T18:24:58.530Z,9.40
2023-04-28T18:30:06.167Z,9.60
2023-04-28T18:35:15.294Z,9.70
2023-04-28T18:40:23.031Z,9.50
2023-04-28T18:45:40.155Z,9.40
2023-04-28T18:50:49.251Z,9.50
2023-04-28T18:55:58.621Z,9.50
2023-04-28T19:01:06.064Z,9.40
2023-04-28T19:06:13.896Z,9.40
2023-04-28T19:11:22.503Z,9.40
2023-04-28T19:16:29.252Z,9.30
2023-04-28T19:21:44.784Z,9.20
2023-04-28T19:26:52.530Z,9.40
2023-04-28T19:31:59.404Z,9.50
2023-04-28T19:37:07.855Z,9.40
2023-04-28T19:42:14.891Z,9.10
2023-04-28T19:47:30.018Z,9.20
2023-04-28T19:52:36.911Z,9.10
2023-04-28T19:57:44.622Z,9.10
2023-04-28T20:02:51.800Z,9.40
2023-04-28T20:07:58.917Z,9.40
2023-04-28T20:13:07.318Z,9.40
2023-04-28T20:18:14.403Z,9.40
2023-04-28T20:23:21.411Z,9.40
2023-04-28T20:28:28.593Z,9.30
2023-04-28T20:33:35.474Z,9.30
2023-04-28T20:38:44.216Z,9.30
2023-04-28T20:43:52.606Z,9.50
2023-04-28T20:48:59.854Z,9.50
2023-04-28T20:54:07.711Z,9.50
2023-04-28T20:59:14.844Z,9.50
2023-04-28T21:04:22.916Z,9.50
2023-04-28T21:09:30.229Z,9.40
2023-04-28T21:14:37.782Z,9.40
2023-04-28T21:19:44.715Z,9.30
2023-04-28T21:24:53.153Z,9.40
2023-04-28T21:30:00.498Z,9.40
2023-04-28T21:35:08.219Z,9.20
2023-04-28T21:40:15.271Z,9.40
2023-04-28T21:45:22.230Z,9.50
2023-04-28T21:50:29.688Z,9.50
2023-04-28T21:55:37.359Z,9.40
2023-04-28T22:00:49.668Z,9.40
2023-04-28T22:06:29.698Z,9.40
2023-04-28T22:11:36.488Z,9.40
2023-04-28T22:16:43.910Z,9.40
2023-04-28T22:21:51.432Z,9.40
2023-04-28T22:26:58.568Z,9.40
2023-04-28T22:32:05.489Z,9.30
2023-04-28T22:37:12.486Z,9.60
2023-04-28T22:42:19.470Z,9.70
2023-04-28T22:47:26.352Z,9.90
2023-04-28T22:52:34.422Z,10.10
2023-04-28T22:57:42.190Z,10.10
2023-04-28T23:02:49.363Z,10.10
2023-04-28T23:07:56.447Z,10.20
2023-04-28T23:13:03.200Z,10.10
2023-04-28T23:18:10.191Z,10.10
2023-04-28T23:23:17.133Z,10.00
2023-04-28T23:28:24.053Z,10.00
2023-04-28T23:33:30.968Z,10.40
2023-04-28T23:38:38.326Z,10.40
2023-04-28T23:43:45.333Z,10.60
2023-04-28T23:48:52.364Z,10.30
2023-04-28T23:54:00.441Z,10.30
2023-04-28T23:59:08.673Z,10.30
